createdAt,value
2022-12-22T00:00:10.345Z,31.27
2022-12-22T00:02:58.246Z,27.00
2022-12-22T00:05:43.529Z,25.25
2022-12-22T00:08:28.706Z,32.67
2022-12-22T00:11:14.396Z,25.30
2022-12-22T00:14:00.232Z,25.55
2022-12-22T00:16:50.783Z,23.30
2022-12-22T00:19:36.055Z,25.63
2022-12-22T00:22:31.009Z,31.88
2022-12-22T00:25:15.910Z,42.15
2022-12-22T00:28:00.861Z,21.77
2022-12-22T00:30:45.831Z,40.05
2022-12-22T00:33:32.511Z,20.63
2022-12-22T00:36:17.549Z,22.02
2022-12-22T00:39:02.377Z,28.67
2022-12-22T00:41:47.592Z,32.05
2022-12-22T00:44:32.807Z,36.17
2022-12-22T00:47:18.199Z,24.38
2022-12-22T00:50:04.899Z,24.88
2022-12-22T00:52:50.058Z,32.63
2022-12-22T00:55:37.989Z,30.75
2022-12-22T00:58:25.180Z,34.78
2022-12-22T01:01:10.384Z,30.60
2022-12-22T01:03:55.587Z,35.17
2022-12-22T01:06:48.871Z,23.25
2022-12-22T01:09:33.881Z,29.23
2022-12-22T01:12:18.972Z,27.88
2022-12-22T01:15:04.258Z,37.92
2022-12-22T01:17:49.175Z,30.67
2022-12-22T01:20:34.459Z,22.10
2022-12-22T01:23:19.639Z,22.48
2022-12-22T01:26:04.792Z,19.63
2022-12-22T01:28:49.892Z,20.70
2022-12-22T01:31:44.597Z,26.33
2022-12-22T01:34:29.701Z,29.95
2022-12-22T01:37:14.853Z,21.08
2022-12-22T01:39:59.777Z,20.05
2022-12-22T01:42:45.514Z,22.30
2022-12-22T01:45:39.970Z,17.33
2022-12-22T01:48:28.743Z,20.02
2022-12-22T01:51:13.954Z,13.57
2022-12-22T01:53:58.900Z,17.48
2022-12-22T01:56:44.088Z,12.30
2022-12-22T01:59:29.432Z,18.08
2022-12-22T02:02:15.808Z,21.98
2022-12-22T02:05:03.675Z,26.55
2022-12-22T02:07:48.761Z,20.70
2022-12-22T02:10:52.591Z,22.00
2022-12-22T02:13:48.472Z,22.40
2022-12-22T02:16:41.878Z,22.38
2022-12-22T02:19:46.511Z,20.58
2022-12-22T02:22:44.596Z,18.42
2022-12-22T02:25:33.992Z,21.38
2022-12-22T02:28:19.938Z,19.85
2022-12-22T02:31:06.419Z,16.70
2022-12-22T02:33:52.268Z,11.57
2022-12-22T02:36:37.419Z,12.82
2022-12-22T02:39:25.690Z,14.80
2022-12-22T02:42:16.963Z,14.15
2022-12-22T02:45:20.670Z,17.05
2022-12-22T02:48:26.527Z,21.08
2022-12-22T02:51:32.855Z,11.30
2022-12-22T02:54:18.012Z,16.88
2022-12-22T02:57:02.849Z,19.52
2022-12-22T02:59:47.842Z,13.65
2022-12-22T03:02:32.912Z,15.43
2022-12-22T03:05:17.984Z,16.90
2022-12-22T03:08:08.274Z,16.63
2022-12-22T03:10:53.997Z,14.30
2022-12-22T03:13:39.021Z,18.48
2022-12-22T03:16:24.173Z,18.40
2022-12-22T03:19:09.253Z,15.38
2022-12-22T03:21:54.420Z,12.55
2022-12-22T03:24:39.551Z,9.50
2022-12-22T03:27:06.027Z,14.25
2022-12-22T03:29:32.478Z,11.02
2022-12-22T03:31:59.248Z,11.90
2022-12-22T03:34:25.801Z,12.00
2022-12-22T03:36:52.252Z,11.35
2022-12-22T03:39:18.761Z,10.43
2022-12-22T03:42:03.829Z,10.50
2022-12-22T03:44:49.024Z,11.80
2022-12-22T03:47:15.604Z,12.82
2022-12-22T03:49:42.070Z,11.30
2022-12-22T03:52:08.560Z,11.93
2022-12-22T03:54:35.029Z,11.80
2022-12-22T03:57:01.481Z,12.10
2022-12-22T03:59:27.954Z,10.25
2022-12-22T04:01:54.940Z,12.27
2022-12-22T04:04:23.009Z,12.93
2022-12-22T04:06:49.686Z,12.15
2022-12-22T04:09:16.131Z,11.80
2022-12-22T04:12:01.197Z,9.02
2022-12-22T04:14:33.446Z,11.70
2022-12-22T04:17:00.314Z,10.68
2022-12-22T04:19:26.783Z,11.15
2022-12-22T04:21:54.133Z,12.25
2022-12-22T04:24:20.702Z,15.45
2022-12-22T04:26:47.136Z,15.73
2022-12-22T04:29:13.604Z,19.13
2022-12-22T04:31:40.171Z,15.63
2022-12-22T04:34:06.728Z,17.05
2022-12-22T04:36:33.174Z,24.67
2022-12-22T04:38:59.719Z,16.08
2022-12-22T04:41:26.553Z,17.50
2022-12-22T04:43:53.028Z,18.25
2022-12-22T04:46:19.522Z,18.95
2022-12-22T04:48:46.016Z,23.85
2022-12-22T04:51:12.643Z,17.52
2022-12-22T04:53:39.072Z,24.90
2022-12-22T04:56:07.635Z,22.30
2022-12-22T04:58:34.486Z,21.35
2022-12-22T05:01:11.543Z,19.15
2022-12-22T05:03:38.299Z,24.55
2022-12-22T05:06:05.051Z,20.92
2022-12-22T05:08:31.562Z,25.65
2022-12-22T05:10:58.023Z,21.38
2022-12-22T05:13:24.482Z,19.25
2022-12-22T05:15:50.954Z,19.58
2022-12-22T05:18:17.374Z,27.13
2022-12-22T05:20:43.819Z,22.83
2022-12-22T05:23:10.356Z,22.40
2022-12-22T05:25:36.771Z,22.90
2022-12-22T05:28:03.445Z,24.67
2022-12-22T05:30:29.915Z,31.15
2022-12-22T05:32:56.383Z,23.48
2022-12-22T05:35:22.812Z,28.85
2022-12-22T05:37:49.335Z,35.28
2022-12-22T05:40:15.816Z,29.85
2022-12-22T05:42:42.303Z,35.38
2022-12-22T05:45:16.730Z,31.27
2022-12-22T05:47:44.296Z,30.00
2022-12-22T05:50:11.471Z,29.98
2022-12-22T05:52:38.297Z,26.92
2022-12-22T05:55:05.047Z,34.65
2022-12-22T05:57:31.552Z,33.45
2022-12-22T05:59:58.048Z,27.25
2022-12-22T06:02:24.745Z,35.97
2022-12-22T06:04:51.344Z,29.05
2022-12-22T06:07:17.797Z,36.35
2022-12-22T06:09:44.257Z,43.22
2022-12-22T06:12:10.765Z,42.90
2022-12-22T06:14:37.223Z,39.58
2022-12-22T06:17:03.660Z,29.63
2022-12-22T06:19:30.223Z,42.80
2022-12-22T06:21:56.765Z,34.60
2022-12-22T06:24:23.184Z,34.00
2022-12-22T06:26:49.652Z,44.35
2022-12-22T06:29:16.167Z,38.05
2022-12-22T06:31:42.798Z,37.45
2022-12-22T06:34:10.148Z,33.58
2022-12-22T06:36:37.022Z,37.28
2022-12-22T06:39:03.527Z,39.78
2022-12-22T06:41:48.571Z,50.25
2022-12-22T06:44:15.411Z,24.58
2022-12-22T06:46:41.935Z,23.67
2022-12-22T06:49:08.551Z,30.05
2022-12-22T06:51:35.002Z,35.13
2022-12-22T06:54:01.705Z,39.30
2022-12-22T06:56:28.212Z,34.20
2022-12-22T06:58:54.891Z,29.55
2022-12-22T07:01:21.405Z,35.78
2022-12-22T07:03:47.917Z,38.35
2022-12-22T07:06:14.416Z,37.03
2022-12-22T07:08:40.816Z,29.65
2022-12-22T07:11:07.242Z,23.80
2022-12-22T07:13:34.645Z,28.27
2022-12-22T07:16:02.409Z,46.72
2022-12-22T07:18:30.196Z,54.10
2022-12-22T07:20:57.041Z,13.25
2022-12-22T07:23:23.827Z,45.95
2022-12-22T07:25:50.348Z,31.33
2022-12-22T07:28:20.639Z,36.60
2022-12-22T07:30:49.058Z,26.50
2022-12-22T07:33:23.146Z,36.10
2022-12-22T07:35:59.916Z,59.15
2022-12-22T07:38:26.353Z,44.22
2022-12-22T07:41:01.195Z,56.50
2022-12-22T07:43:30.889Z,43.65
2022-12-22T07:45:57.366Z,48.88
2022-12-22T07:48:53.260Z,39.33
2022-12-22T07:51:19.667Z,46.13
2022-12-22T07:53:46.145Z,40.15
2022-12-22T07:56:12.615Z,40.03
2022-12-22T07:58:39.081Z,40.25
2022-12-22T08:01:05.535Z,41.00
2022-12-22T08:03:31.998Z,29.35
2022-12-22T08:05:58.498Z,46.78
2022-12-22T08:08:25.003Z,38.00
2022-12-22T08:10:51.452Z,52.53
2022-12-22T08:13:18.119Z,50.05
2022-12-22T08:15:44.675Z,35.85
2022-12-22T08:18:11.204Z,47.10
2022-12-22T08:20:37.680Z,58.67
2022-12-22T08:23:04.160Z,50.30
2022-12-22T08:25:31.948Z,43.30
2022-12-22T08:27:58.857Z,34.53
2022-12-22T08:30:25.485Z,49.20
2022-12-22T08:32:52.303Z,55.95
2022-12-22T08:35:19.064Z,41.72
2022-12-22T08:37:45.960Z,67.90
2022-12-22T08:40:14.581Z,72.75
2022-12-22T08:42:41.678Z,64.95
2022-12-22T08:45:09.370Z,44.30
2022-12-22T08:47:36.008Z,69.75
2022-12-22T08:50:03.058Z,69.63
2022-12-22T08:52:30.205Z,51.33
2022-12-22T08:54:56.621Z,49.97
2022-12-22T08:57:23.055Z,79.28
2022-12-22T08:59:49.544Z,89.55
2022-12-22T09:02:16.285Z,62.28
2022-12-22T09:04:42.825Z,65.07
2022-12-22T09:07:09.521Z,72.55
2022-12-22T09:09:36.039Z,52.78
2022-12-22T09:12:04.055Z,82.25
2022-12-22T09:14:30.955Z,45.80
2022-12-22T09:16:57.452Z,55.70
2022-12-22T09:19:23.930Z,47.22
2022-12-22T09:21:50.520Z,59.85
2022-12-22T09:24:17.469Z,62.22
2022-12-22T09:26:44.116Z,71.65
2022-12-22T09:29:10.663Z,78.90
2022-12-22T09:31:37.314Z,69.82
2022-12-22T09:34:03.829Z,94.35
2022-12-22T09:36:31.026Z,65.35
2022-12-22T09:38:57.759Z,47.20
2022-12-22T09:41:28.882Z,79.40
2022-12-22T09:43:55.852Z,63.88
2022-12-22T09:46:24.164Z,63.15
2022-12-22T09:48:52.600Z,82.32
2022-12-22T09:51:26.084Z,62.53
2022-12-22T09:54:00.287Z,67.28
2022-12-22T09:56:27.813Z,68.63
2022-12-22T09:58:54.933Z,53.22
2022-12-22T10:01:40.473Z,61.35
2022-12-22T10:04:16.192Z,53.67
2022-12-22T10:06:58.673Z,45.45
2022-12-22T10:09:49.121Z,41.47
2022-12-22T10:12:15.027Z,53.85
2022-12-22T10:14:43.115Z,57.50
2022-12-22T10:17:15.763Z,59.35
2022-12-22T10:19:42.434Z,53.72
2022-12-22T10:22:20.727Z,56.47
2022-12-22T10:24:47.176Z,67.20
2022-12-22T10:27:13.800Z,79.32
2022-12-22T10:29:40.395Z,62.40
2022-12-22T10:32:14.666Z,66.20
2022-12-22T10:35:01.612Z,68.63
2022-12-22T10:37:33.120Z,73.13
2022-12-22T10:39:59.748Z,56.38
2022-12-22T10:42:26.275Z,65.00
2022-12-22T10:44:52.811Z,77.18
2022-12-22T10:47:21.485Z,64.93
2022-12-22T10:49:49.468Z,60.28
2022-12-22T10:52:27.337Z,69.68
2022-12-22T10:55:19.671Z,66.47
2022-12-22T10:57:46.206Z,51.40
2022-12-22T11:00:23.918Z,65.93
2022-12-22T11:02:54.557Z,52.55
2022-12-22T11:05:21.330Z,40.05
2022-12-22T11:07:48.038Z,70.53
2022-12-22T11:10:16.714Z,66.15
2022-12-22T11:13:02.775Z,57.75
2022-12-22T11:15:34.726Z,62.17
2022-12-22T11:18:19.991Z,81.60
2022-12-22T11:20:55.541Z,89.60
2022-12-22T11:23:39.046Z,37.97
2022-12-22T11:26:16.037Z,44.70
2022-12-22T11:29:05.701Z,71.15
2022-12-22T11:31:41.453Z,68.85
2022-12-22T11:34:34.832Z,70.68
2022-12-22T11:37:01.389Z,59.47
2022-12-22T11:39:38.340Z,60.78
2022-12-22T11:42:24.673Z,43.42
2022-12-22T11:45:08.050Z,52.20
2022-12-22T11:47:54.729Z,51.67
2022-12-22T11:51:00.180Z,43.08
2022-12-22T11:53:34.823Z,47.58
2022-12-22T11:56:13.467Z,65.53
2022-12-22T11:59:02.965Z,46.08
2022-12-22T12:01:29.537Z,73.97
2022-12-22T12:04:05.126Z,52.17
2022-12-22T12:06:44.902Z,52.20
2022-12-22T12:09:30.148Z,34.92
2022-12-22T12:12:16.920Z,38.03
2022-12-22T12:14:46.413Z,56.85
2022-12-22T12:17:33.565Z,47.50
2022-12-22T12:20:08.393Z,31.83
2022-12-22T12:22:44.109Z,36.13
2022-12-22T12:25:25.629Z,27.73
2022-12-22T12:28:05.065Z,34.05
2022-12-22T12:30:53.067Z,39.17
2022-12-22T12:33:41.686Z,37.22
2022-12-22T12:36:12.163Z,25.20
2022-12-22T12:41:39.187Z,25.27
2022-12-22T12:44:07.095Z,34.25
2022-12-22T12:46:41.326Z,29.60
2022-12-22T12:49:30.880Z,33.05
2022-12-22T12:51:57.472Z,24.17
2022-12-22T12:54:30.247Z,26.52
2022-12-22T12:57:00.721Z,24.58
2022-12-22T12:59:39.491Z,27.50
2022-12-22T13:02:24.914Z,20.60
2022-12-22T13:05:13.094Z,18.05
2022-12-22T13:07:58.566Z,20.75
2022-12-22T13:10:25.334Z,25.20
2022-12-22T13:12:53.222Z,20.55
2022-12-22T13:15:28.991Z,15.73
2022-12-22T13:17:55.570Z,19.75
2022-12-22T13:20:27.502Z,14.52
2022-12-22T13:22:55.754Z,18.80
2022-12-22T13:25:23.252Z,15.80
2022-12-22T13:27:51.035Z,19.92
2022-12-22T13:30:18.836Z,24.13
2022-12-22T13:32:47.098Z,26.83
2022-12-22T13:35:34.015Z,27.85
2022-12-22T13:38:02.304Z,17.58
2022-12-22T13:40:39.883Z,21.30
2022-12-22T13:43:16.630Z,18.15
2022-12-22T13:45:53.168Z,19.52
2022-12-22T13:48:21.107Z,20.40
2022-12-22T13:50:54.600Z,18.08
2022-12-22T13:54:07.797Z,18.05
2022-12-22T13:56:25.232Z,23.00
2022-12-22T13:58:53.052Z,21.95
2022-12-22T14:01:19.893Z,20.77
2022-12-22T14:04:03.352Z,15.77
2022-12-22T14:06:35.996Z,18.23
2022-12-22T14:09:11.848Z,24.33
2022-12-22T14:11:38.463Z,20.08
2022-12-22T14:14:09.578Z,21.88
2022-12-22T14:16:42.246Z,21.40
2022-12-22T14:19:11.299Z,22.45
2022-12-22T14:21:37.855Z,22.58
2022-12-22T14:24:04.696Z,21.65
2022-12-22T14:26:31.237Z,16.35
2022-12-22T14:28:58.461Z,22.48
2022-12-22T14:31:25.055Z,20.38
2022-12-22T14:34:05.064Z,22.23
2022-12-22T14:36:40.680Z,22.48
2022-12-22T14:39:10.576Z,23.60
2022-12-22T14:41:51.820Z,20.70
2022-12-22T14:44:24.038Z,21.10
2022-12-22T14:47:09.468Z,16.13
2022-12-22T14:49:43.104Z,22.02
2022-12-22T14:52:16.427Z,17.83
2022-12-22T14:54:45.852Z,17.30
2022-12-22T14:57:17.019Z,16.70
2022-12-22T14:59:57.483Z,20.75
2022-12-22T15:02:33.613Z,16.75
2022-12-22T15:05:14.893Z,16.42
2022-12-22T15:10:38.463Z,22.20
2022-12-22T15:13:05.884Z,21.10
2022-12-22T15:15:33.177Z,22.55
2022-12-22T15:17:59.972Z,24.10
2022-12-22T15:20:27.298Z,21.77
2022-12-22T15:22:54.054Z,20.80
2022-12-22T15:25:22.030Z,21.45
2022-12-22T15:27:49.018Z,20.02
2022-12-22T15:30:17.208Z,30.33
2022-12-22T15:32:44.091Z,31.63
2022-12-22T15:35:18.054Z,25.90
2022-12-22T15:37:44.793Z,24.88
2022-12-22T15:40:18.791Z,23.75
2022-12-22T15:42:45.682Z,23.67
2022-12-22T15:45:13.165Z,23.38
2022-12-22T15:47:40.724Z,29.08
2022-12-22T15:50:07.878Z,32.47
2022-12-22T15:52:34.430Z,29.17
2022-12-22T15:55:00.981Z,29.10
2022-12-22T15:57:27.766Z,30.50
2022-12-22T15:59:54.269Z,34.80
2022-12-22T16:02:20.937Z,30.13
2022-12-22T16:04:47.516Z,39.03
2022-12-22T16:07:14.043Z,32.08
2022-12-22T16:09:45.029Z,29.92
2022-12-22T16:12:13.059Z,33.10
2022-12-22T16:14:46.498Z,26.52
2022-12-22T16:17:20.699Z,28.77
2022-12-22T16:19:47.474Z,22.15
2022-12-22T16:22:14.956Z,26.40
2022-12-22T16:24:42.759Z,34.42
2022-12-22T16:27:10.973Z,23.13
2022-12-22T16:29:38.244Z,22.52
2022-12-22T16:32:25.196Z,27.08
2022-12-22T16:34:51.961Z,25.10
2022-12-22T16:37:18.585Z,23.77
2022-12-22T16:39:46.099Z,23.00
2022-12-22T16:45:01.282Z,32.50
2022-12-22T16:47:31.207Z,31.92
2022-12-22T16:49:58.014Z,41.78
2022-12-22T16:52:26.656Z,24.08
2022-12-22T16:54:53.164Z,29.02
2022-12-22T16:57:19.659Z,26.52
2022-12-22T16:59:46.160Z,24.80
2022-12-22T17:02:18.612Z,36.90
2022-12-22T17:04:45.437Z,31.25
2022-12-22T17:07:12.084Z,30.05
2022-12-22T17:09:46.470Z,30.48
2022-12-22T17:12:16.386Z,37.80
2022-12-22T17:14:42.860Z,49.08
2022-12-22T17:17:26.844Z,48.88
2022-12-22T17:19:57.539Z,37.75
2022-12-22T17:22:26.149Z,44.03
2022-12-22T17:24:53.896Z,37.97
2022-12-22T17:27:22.964Z,37.78
2022-12-22T17:29:49.629Z,45.92
2022-12-22T17:32:16.654Z,43.72
2022-12-22T17:34:43.139Z,35.50
2022-12-22T17:37:20.987Z,39.58
2022-12-22T17:39:48.942Z,37.58
2022-12-22T17:42:19.138Z,32.63
2022-12-22T17:44:46.081Z,34.58
2022-12-22T17:47:16.539Z,32.80
2022-12-22T17:49:43.332Z,28.35
2022-12-22T17:52:17.457Z,34.83
2022-12-22T17:54:44.617Z,28.63
2022-12-22T17:57:29.819Z,32.28
2022-12-22T17:59:56.478Z,26.85
2022-12-22T18:02:24.368Z,31.65
2022-12-22T18:04:51.544Z,26.48
2022-12-22T18:07:22.656Z,25.95
2022-12-22T18:09:50.179Z,33.25
2022-12-22T18:12:21.409Z,29.70
2022-12-22T18:14:48.449Z,21.20
2022-12-22T18:17:28.584Z,26.17
2022-12-22T18:19:59.777Z,30.63
2022-12-22T18:22:28.634Z,20.95
2022-12-22T18:24:55.603Z,23.70
2022-12-22T18:27:22.916Z,22.88
2022-12-22T18:29:49.599Z,17.83
2022-12-22T18:32:22.910Z,18.63
2022-12-22T18:34:53.133Z,18.67
2022-12-22T18:37:19.679Z,20.67
2022-12-22T18:39:46.362Z,19.63
2022-12-22T18:42:20.736Z,20.70
2022-12-22T18:44:47.632Z,16.85
2022-12-22T18:47:14.488Z,15.20
2022-12-22T18:49:41.096Z,19.40
2022-12-22T18:52:16.295Z,17.45
2022-12-22T18:54:42.981Z,14.52
2022-12-22T18:57:13.061Z,18.60
2022-12-22T18:59:39.565Z,19.23
2022-12-22T19:02:12.378Z,15.43
2022-12-22T19:04:38.887Z,15.23
2022-12-22T19:07:05.362Z,14.55
2022-12-22T19:09:31.961Z,20.70
2022-12-22T19:11:58.680Z,16.27
2022-12-22T19:14:25.146Z,14.60
2022-12-22T19:16:51.695Z,14.45
2022-12-22T19:19:19.582Z,17.33
2022-12-22T19:21:46.844Z,11.90
2022-12-22T19:24:13.433Z,11.45
2022-12-22T19:26:40.635Z,10.70
2022-12-22T19:29:07.604Z,12.93
2022-12-22T19:31:34.708Z,10.82
2022-12-22T19:34:03.636Z,11.80
2022-12-22T19:36:31.155Z,12.20
2022-12-22T19:39:04.046Z,12.98
2022-12-22T19:41:46.058Z,12.57
2022-12-22T19:44:29.987Z,13.35
2022-12-22T19:46:59.029Z,13.45
2022-12-22T19:49:27.403Z,14.20
2022-12-22T19:51:57.039Z,13.23
2022-12-22T19:54:23.571Z,12.07
2022-12-22T19:56:51.823Z,15.70
2022-12-22T19:59:37.539Z,19.67
2022-12-22T20:02:20.399Z,14.50
2022-12-22T20:04:47.407Z,13.60
2022-12-22T20:07:18.060Z,13.00
2022-12-22T20:09:44.708Z,13.32
2022-12-22T20:12:25.122Z,14.88
2022-12-22T20:14:51.892Z,13.45
2022-12-22T20:17:18.559Z,11.30
2022-12-22T20:19:45.030Z,14.35
2022-12-22T20:22:16.019Z,16.25
2022-12-22T20:24:43.127Z,13.30
2022-12-22T20:27:17.313Z,17.95
2022-12-22T20:29:43.800Z,16.33
2022-12-22T20:32:13.455Z,18.85
2022-12-22T20:34:40.141Z,12.98
2022-12-22T20:37:06.664Z,14.65
2022-12-22T20:39:33.114Z,17.17
2022-12-22T20:41:59.554Z,19.13
2022-12-22T20:44:27.975Z,17.45
2022-12-22T20:46:54.501Z,16.35
2022-12-22T20:49:21.033Z,16.35
2022-12-22T20:51:47.791Z,14.95
2022-12-22T20:54:14.884Z,15.68
2022-12-22T20:56:42.994Z,12.80
2022-12-22T20:59:27.275Z,13.23
2022-12-22T21:01:53.923Z,12.98
2022-12-22T21:04:21.522Z,13.65
2022-12-22T21:06:55.434Z,14.75
2022-12-22T21:09:22.602Z,15.02
2022-12-22T21:11:49.597Z,17.02
2022-12-22T21:14:16.546Z,13.68
2022-12-22T21:16:43.396Z,16.88
2022-12-22T21:19:15.136Z,16.15
2022-12-22T21:21:41.621Z,17.15
2022-12-22T21:24:08.159Z,20.33
2022-12-22T21:26:36.995Z,19.45
2022-12-22T21:29:06.169Z,16.55
2022-12-22T21:31:32.803Z,12.70
2022-12-22T21:33:59.592Z,17.45
2022-12-22T21:36:28.211Z,21.08
2022-12-22T21:38:56.082Z,15.98
2022-12-22T21:41:45.188Z,13.38
2022-12-22T21:44:13.187Z,10.77
2022-12-22T21:46:43.922Z,11.07
2022-12-22T21:49:21.080Z,16.30
2022-12-22T21:51:47.905Z,14.57
2022-12-22T21:54:14.824Z,11.02
2022-12-22T21:56:41.296Z,13.88
2022-12-22T21:59:07.790Z,6.63
2022-12-22T22:01:34.598Z,12.45
2022-12-22T22:04:01.247Z,10.25
2022-12-22T22:06:27.752Z,12.75
2022-12-22T22:08:54.191Z,10.15
2022-12-22T22:11:24.540Z,12.82
2022-12-22T22:13:51.578Z,19.95
2022-12-22T22:16:18.557Z,16.40
2022-12-22T22:18:45.827Z,21.17
2022-12-22T22:21:14.236Z,21.40
2022-12-22T22:23:40.757Z,18.95
2022-12-22T22:26:07.868Z,17.95
2022-12-22T22:28:34.910Z,15.13
2022-12-22T22:31:02.471Z,19.92
2022-12-22T22:33:29.008Z,23.38
2022-12-22T22:35:58.056Z,10.93
2022-12-22T22:38:27.180Z,16.67
2022-12-22T22:40:57.973Z,17.40
2022-12-22T22:43:24.576Z,10.07
2022-12-22T22:45:51.381Z,9.52
2022-12-22T22:48:20.147Z,12.52
2022-12-22T22:50:46.726Z,11.77
2022-12-22T22:53:13.593Z,15.32
2022-12-22T22:55:40.274Z,17.50
2022-12-22T22:58:07.146Z,14.27
2022-12-22T23:00:33.604Z,15.45
2022-12-22T23:03:00.581Z,17.25
2022-12-22T23:05:27.303Z,13.38
2022-12-22T23:07:53.716Z,11.07
2022-12-22T23:10:20.215Z,12.85
2022-12-22T23:12:46.706Z,15.57
2022-12-22T23:15:13.181Z,15.90
2022-12-22T23:17:39.632Z,13.10
2022-12-22T23:20:06.531Z,16.25
2022-12-22T23:22:33.003Z,14.85
2022-12-22T23:24:59.489Z,11.18
2022-12-22T23:27:25.920Z,11.70
2022-12-22T23:29:52.528Z,15.55
2022-12-22T23:32:19.068Z,10.13
2022-12-22T23:34:45.538Z,11.85
2022-12-22T23:37:18.767Z,12.43
2022-12-22T23:39:45.936Z,10.30
2022-12-22T23:42:12.420Z,12.93
2022-12-22T23:44:38.878Z,13.20
2022-12-22T23:47:05.388Z,9.52
2022-12-22T23:49:31.947Z,8.60
2022-12-22T23:51:58.432Z,12.40
2022-12-22T23:54:24.998Z,14.45
2022-12-22T23:56:51.672Z,9.70
2022-12-22T23:59:18.238Z,12.13
